Time;durP1;ratioP1;P1;durP2;ratioP2;P2;SDS_P1;SDS_P2;PMS_P1;PMS_P2;Temp;Humidity;BMP_temperature;BMP_pressure;BME280_temperature;BME280_humidity;BME280_pressure;Samples;Min_cycle;Max_cycle;Signal;HPM_P1;HPM_P2
2023/12/13 00:00:05;;;;;;;;;;;;;;;-1.75;83.09;101008.77;106507;1268;110144;-65
2023/12/13 00:02:59;;;;;;;;;;;;;;;-1.76;83.35;101007.25;106519;1268;109231;-66
2023/12/13 00:05:28;;;;;;;;;;;;;;;-1.75;83.25;101011.64;106504;1267;97763;-66
2023/12/13 00:07:57;;;;;;;;;;;;;;;-1.76;83.38;101019.91;106544;1268;97856;-67
2023/12/13 00:10:25;;;;;;;;;;;;;;;-1.74;83.50;101019.67;106473;1268;111794;-67
2023/12/13 00:12:53;;;;;;;;;;;;;;;-1.72;83.70;101007.82;106551;1268;109813;-67
2023/12/13 00:15:23;;;;;;;;;;;;;;;-1.70;83.49;100998.63;106496;1268;108299;-67
2023/12/13 00:17:51;;;;;;;;;;;;;;;-1.71;83.29;101004.45;106503;1271;97924;-66
2023/12/13 00:20:19;;;;;;;;;;;;;;;-1.70;83.54;101004.59;106518;1267;97845;-67
2023/12/13 00:22:47;;;;;;;;;;;;;;;-1.66;83.65;101000.77;106546;1268;111458;-66
2023/12/13 00:25:16;;;;;;;;;;;;;;;-1.62;83.86;101001.50;106550;1271;109170;-66
2023/12/13 00:27:44;;;;;;;;;;;;;;;-1.58;83.58;101009.83;106501;1269;107200;-65
2023/12/13 00:30:13;;;;;;;;;;;;;;;-1.53;83.84;101015.11;106539;1267;97896;-65
2023/12/13 00:32:42;;;;;;;;;;;;;;;-1.47;84.30;101015.06;106567;1268;97791;-66
2023/12/13 00:35:10;;;;;;;;;;;;;;;-1.43;84.58;101013.17;106550;1268;112214;-65
2023/12/13 00:37:38;;;;;;;;;;;;;;;-1.39;84.96;101013.02;106514;1268;109035;-66
2023/12/13 00:40:07;;;;;;;;;;;;;;;-1.32;84.99;101002.08;106537;1267;108107;-66
2023/12/13 00:42:35;;;;;;;;;;;;;;;-1.30;84.68;100995.47;106599;1268;97755;-67
2023/12/13 00:45:04;;;;;;;;;;;;;;;-1.29;84.46;100999.67;106559;1268;97848;-70
2023/12/13 00:47:33;;;;;;;;;;;;;;;-1.23;84.82;100998.58;106616;1268;111304;-68
2023/12/13 00:50:02;;;;;;;;;;;;;;;-1.15;84.98;101002.36;106542;1267;108766;-68
2023/12/13 00:52:32;;;;;;;;;;;;;;;-1.10;85.28;101002.34;106581;1268;108661;-67
2023/12/13 00:55:01;;;;;;;;;;;;;;;-1.04;85.51;101001.60;106527;1267;97947;-69
2023/12/13 00:57:29;;;;;;;;;;;;;;;-1.00;85.64;100995.64;106540;1268;97888;-71
2023/12/13 00:59:58;;;;;;;;;;;;;;;-0.98;85.20;100996.78;106533;1268;111871;-67
2023/12/13 01:02:27;;;;;;;;;;;;;;;-0.96;85.18;101001.98;106600;1269;110389;-66
2023/12/13 01:04:55;;;;;;;;;;;;;;;-0.95;85.22;100996.34;106542;1269;107300;-66
2023/12/13 01:07:24;;;;;;;;;;;;;;;-0.90;85.26;100983.14;106505;1271;97925;-66
2023/12/13 01:09:52;;;;;;;;;;;;;;;-0.87;85.06;100985.32;106425;1267;97891;-65
2023/12/13 01:12:20;;;;;;;;;;;;;;;-0.83;84.90;100996.06;106589;1267;112310;-65
2023/12/13 01:14:48;;;;;;;;;;;;;;;-0.81;85.07;100996.67;106576;1271;108788;-66
2023/12/13 01:17:16;;;;;;;;;;;;;;;-0.77;85.22;100995.65;106497;1268;107756;-66
2023/12/13 01:19:44;;;;;;;;;;;;;;;-0.75;85.24;100993.65;106485;1268;97881;-66
2023/12/13 01:22:13;;;;;;;;;;;;;;;-0.71;84.98;100990.34;106525;1268;97723;-67
2023/12/13 01:24:41;;;;;;;;;;;;;;;-0.67;84.74;100984.52;106490;1268;111973;-67
2023/12/13 01:27:09;;;;;;;;;;;;;;;-0.66;84.38;100980.27;106578;1267;109052;-67
2023/12/13 01:29:37;;;;;;;;;;;;;;;-0.66;84.36;100981.52;106533;1268;107085;-67
2023/12/13 01:32:06;;;;;;;;;;;;;;;-0.65;84.50;100978.84;106572;1267;97929;-67
2023/12/13 01:34:35;;;;;;;;;;;;;;;-0.60;84.46;100973.20;106601;1269;98003;-69
2023/12/13 01:37:03;;;;;;;;;;;;;;;-0.57;84.20;100974.30;106525;1269;113245;-67
2023/12/13 01:39:31;;;;;;;;;;;;;;;-0.53;84.42;100964.46;106487;1269;109413;-67
2023/12/13 01:41:59;;;;;;;;;;;;;;;-0.57;83.59;100972.73;106573;1269;108469;-66
2023/12/13 01:44:27;;;;;;;;;;;;;;;-0.63;83.39;100972.42;106560;1267;97978;-66
2023/12/13 01:46:55;;;;;;;;;;;;;;;-0.66;83.51;100973.20;106617;1269;97862;-66
2023/12/13 01:49:24;;;;;;;;;;;;;;;-0.68;83.39;100976.82;106485;1268;112401;-68
2023/12/13 01:51:53;;;;;;;;;;;;;;;-0.75;83.31;100974.98;106480;1268;110645;-66
2023/12/13 01:54:21;;;;;;;;;;;;;;;-0.81;83.14;100972.02;106565;1269;108220;-65
2023/12/13 01:56:51;;;;;;;;;;;;;;;-0.84;83.10;100965.14;106530;1268;97849;-69
2023/12/13 01:59:20;;;;;;;;;;;;;;;-0.95;82.96;100964.84;106632;1269;97859;-67
2023/12/13 02:01:48;;;;;;;;;;;;;;;-1.09;82.88;100969.92;106518;1268;111192;-68
2023/12/13 02:04:17;;;;;;;;;;;;;;;-1.13;83.15;100970.03;106531;1268;109360;-66
2023/12/13 02:06:45;;;;;;;;;;;;;;;-1.16;83.22;100973.51;106497;1268;107934;-67
2023/12/13 02:09:13;;;;;;;;;;;;;;;-1.26;83.05;100972.62;106466;1271;97913;-68
2023/12/13 02:11:41;;;;;;;;;;;;;;;-1.30;82.93;100977.17;106536;1268;97963;-68
2023/12/13 02:14:10;;;;;;;;;;;;;;;-1.32;82.93;100980.05;106617;1269;112014;-66
2023/12/13 02:16:38;;;;;;;;;;;;;;;-1.35;83.08;100981.57;106552;1271;109158;-66
2023/12/13 02:19:08;;;;;;;;;;;;;;;-1.39;82.78;100984.36;106562;1267;107869;-65
2023/12/13 02:21:37;;;;;;;;;;;;;;;-1.42;82.80;100982.88;106525;1271;97865;-66
2023/12/13 02:24:06;;;;;;;;;;;;;;;-1.48;82.44;100972.54;106572;1269;97757;-66
2023/12/13 02:26:38;;;;;;;;;;;;;;;-1.55;82.27;100966.25;106603;1267;111375;-65
2023/12/13 02:29:07;;;;;;;;;;;;;;;-1.61;82.40;100979.65;106599;1269;109719;-65
2023/12/13 02:31:35;;;;;;;;;;;;;;;-1.62;82.61;100982.69;106533;1269;108251;-67
2023/12/13 02:34:04;;;;;;;;;;;;;;;-1.64;82.65;100976.79;106529;1268;97883;-69
2023/12/13 02:36:32;;;;;;;;;;;;;;;-1.65;82.79;100973.82;106449;1268;97859;-67
2023/12/13 02:39:02;;;;;;;;;;;;;;;-1.66;82.70;100973.52;106460;1268;111406;-65
2023/12/13 02:41:32;;;;;;;;;;;;;;;-1.69;82.76;100969.41;106538;1268;108737;-67
2023/12/13 02:44:00;;;;;;;;;;;;;;;-1.70;82.77;100967.16;106561;1271;108495;-68
2023/12/13 02:46:28;;;;;;;;;;;;;;;-1.73;82.76;100958.97;106532;1269;97916;-67
2023/12/13 02:48:58;;;;;;;;;;;;;;;-1.75;82.96;100951.65;106557;1269;97764;-69
2023/12/13 02:51:26;;;;;;;;;;;;;;;-1.75;82.89;100946.20;106538;1268;110197;-68
2023/12/13 02:53:54;;;;;;;;;;;;;;;-1.78;82.90;100935.55;106501;1268;109397;-65
2023/12/13 02:56:22;;;;;;;;;;;;;;;-1.81;82.85;100931.45;106503;1269;107902;-66
2023/12/13 02:58:51;;;;;;;;;;;;;;;-1.82;82.90;100925.86;106501;1268;97959;-66
2023/12/13 03:01:19;;;;;;;;;;;;;;;-1.82;82.89;100925.86;106539;1269;97773;-65
2023/12/13 03:03:47;;;;;;;;;;;;;;;-1.82;83.02;100920.60;106563;1267;111145;-64
2023/12/13 03:06:15;;;;;;;;;;;;;;;-1.83;83.18;100916.04;106539;1268;109632;-65
2023/12/13 03:08:44;;;;;;;;;;;;;;;-1.83;83.33;100910.77;106555;1267;107813;-66
2023/12/13 03:11:12;;;;;;;;;;;;;;;-1.82;83.40;100906.19;106543;1268;97859;-68
2023/12/13 03:13:40;;;;;;;;;;;;;;;-1.84;83.28;100902.76;106566;1267;97934;-68
2023/12/13 03:16:09;;;;;;;;;;;;;;;-1.83;83.48;100909.04;106557;1267;111485;-69
2023/12/13 03:18:37;;;;;;;;;;;;;;;-1.81;83.72;100915.13;106571;1269;108172;-69
2023/12/13 03:21:06;;;;;;;;;;;;;;;-1.80;83.76;100916.30;106480;1268;108667;-70
2023/12/13 03:23:34;;;;;;;;;;;;;;;-1.78;83.94;100912.36;106598;1267;97944;-68
2023/12/13 03:26:02;;;;;;;;;;;;;;;-1.77;83.96;100912.13;106577;1267;97862;-71
2023/12/13 03:28:30;;;;;;;;;;;;;;;-1.74;84.28;100908.36;106532;1273;111247;-66
2023/12/13 03:30:58;;;;;;;;;;;;;;;-1.73;84.34;100910.96;106573;1268;108770;-68
2023/12/13 03:33:27;;;;;;;;;;;;;;;-1.71;84.32;100912.84;106497;1268;107839;-68
2023/12/13 03:35:56;;;;;;;;;;;;;;;-1.68;84.42;100907.64;106550;1268;97964;-67
2023/12/13 03:38:24;;;;;;;;;;;;;;;-1.65;84.76;100898.57;106516;1269;97856;-69
2023/12/13 03:40:52;;;;;;;;;;;;;;;-1.65;84.52;100904.70;106615;1268;111498;-69
2023/12/13 03:43:20;;;;;;;;;;;;;;;-1.65;84.44;100911.39;106493;1267;109948;-70
2023/12/13 03:45:48;;;;;;;;;;;;;;;-1.62;84.75;100917.12;106583;1268;107162;-70
2023/12/13 03:48:17;;;;;;;;;;;;;;;-1.61;84.80;100914.05;106455;1268;97922;-68
2023/12/13 03:50:45;;;;;;;;;;;;;;;-1.59;84.91;100907.84;106507;1268;97852;-69
2023/12/13 03:53:14;;;;;;;;;;;;;;;-1.60;84.85;100907.86;106489;1273;112229;-68
2023/12/13 03:55:42;;;;;;;;;;;;;;;-1.59;84.83;100907.11;106605;1268;109077;-69
2023/12/13 03:58:10;;;;;;;;;;;;;;;-1.56;85.19;100902.80;106574;1268;108250;-73
2023/12/13 04:00:38;;;;;;;;;;;;;;;-1.52;85.16;100909.71;106586;1268;97867;-69
2023/12/13 04:03:06;;;;;;;;;;;;;;;-1.50;85.16;100908.93;106558;1267;97789;-66
2023/12/13 04:05:35;;;;;;;;;;;;;;;-1.48;85.28;100906.04;106552;1269;112021;-67
2023/12/13 04:08:03;;;;;;;;;;;;;;;-1.46;85.42;100900.14;106459;1268;109968;-67
2023/12/13 04:10:31;;;;;;;;;;;;;;;-1.44;85.28;100901.67;106592;1271;107844;-68
2023/12/13 04:12:59;;;;;;;;;;;;;;;-1.44;85.41;100896.73;106545;1269;97875;-66
2023/12/13 04:15:27;;;;;;;;;;;;;;;-1.42;85.31;100894.05;106606;1266;97852;-67
2023/12/13 04:17:55;;;;;;;;;;;;;;;-1.40;85.30;100897.84;106533;1267;111825;-65
2023/12/13 04:20:24;;;;;;;;;;;;;;;-1.39;85.30;100901.30;106547;1268;109854;-66
2023/12/13 04:22:52;;;;;;;;;;;;;;;-1.39;85.24;100896.58;106503;1267;107833;-69
2023/12/13 04:25:21;;;;;;;;;;;;;;;-1.39;85.20;100893.58;106542;1269;97851;-69
2023/12/13 04:27:49;;;;;;;;;;;;;;;-1.39;85.30;100895.14;106451;1268;98379;-68
2023/12/13 04:30:17;;;;;;;;;;;;;;;-1.38;85.50;100889.65;106527;1269;111565;-66
2023/12/13 04:32:46;;;;;;;;;;;;;;;-1.38;85.25;100890.02;106514;1273;110127;-69
2023/12/13 04:35:14;;;;;;;;;;;;;;;-1.38;85.47;100884.56;106439;1269;107894;-65
2023/12/13 04:37:42;;;;;;;;;;;;;;;-1.37;85.51;100883.83;106494;1271;97872;-66
2023/12/13 04:40:10;;;;;;;;;;;;;;;-1.36;85.46;100884.16;106577;1268;97931;-67
2023/12/13 04:42:39;;;;;;;;;;;;;;;-1.35;85.50;100884.99;106509;1271;110703;-67
2023/12/13 04:45:08;;;;;;;;;;;;;;;-1.35;85.57;100880.95;106542;1267;109353;-67
2023/12/13 04:47:36;;;;;;;;;;;;;;;-1.37;85.39;100876.95;106594;1269;108628;-69
2023/12/13 04:50:06;;;;;;;;;;;;;;;-1.38;85.49;100875.92;106588;1271;97919;-67
2023/12/13 04:52:34;;;;;;;;;;;;;;;-1.39;85.45;100863.50;106528;1268;97853;-67
2023/12/13 04:55:05;;;;;;;;;;;;;;;-1.40;85.81;100857.88;106495;1267;112146;-68
2023/12/13 04:57:33;;;;;;;;;;;;;;;-1.43;85.77;100859.04;106532;1267;109501;-69
2023/12/13 05:00:04;;;;;;;;;;;;;;;-1.45;85.61;100865.29;106553;1267;108473;-69
2023/12/13 05:02:32;;;;;;;;;;;;;;;-1.46;85.72;100871.13;106397;1270;98251;-68
2023/12/13 05:05:00;;;;;;;;;;;;;;;-1.43;85.93;100873.68;106525;1271;97855;-69
2023/12/13 05:07:29;;;;;;;;;;;;;;;-1.40;86.25;100882.01;106502;1269;111538;-67
2023/12/13 05:09:58;;;;;;;;;;;;;;;-1.34;86.63;100879.30;106566;1269;107525;-71
2023/12/13 05:12:26;;;;;;;;;;;;;;;-1.27;86.81;100878.34;106528;1268;107156;-66
2023/12/13 05:14:54;;;;;;;;;;;;;;;-1.20;86.96;100872.48;106509;1269;97850;-66
2023/12/13 05:17:23;;;;;;;;;;;;;;;-1.16;86.98;100872.14;106527;1268;97953;-69
2023/12/13 05:19:51;;;;;;;;;;;;;;;-1.09;87.13;100867.99;106536;1269;110454;-66
2023/12/13 05:22:23;;;;;;;;;;;;;;;-1.00;87.52;100863.95;106499;1269;109244;-67
2023/12/13 05:24:51;;;;;;;;;;;;;;;-0.92;87.72;100863.45;106467;1267;107947;-67
2023/12/13 05:27:20;;;;;;;;;;;;;;;-0.86;87.38;100868.14;106564;1267;97885;-68
2023/12/13 05:29:48;;;;;;;;;;;;;;;-0.81;87.31;100863.55;106445;1269;97888;-65
2023/12/13 05:32:16;;;;;;;;;;;;;;;-0.75;87.58;100857.52;106525;1272;111081;-70
2023/12/13 05:34:44;;;;;;;;;;;;;;;-0.77;86.93;100852.86;106500;1267;109122;-69
2023/12/13 05:37:13;;;;;;;;;;;;;;;-0.75;87.11;100856.46;106483;1269;107606;-68
2023/12/13 05:39:41;;;;;;;;;;;;;;;-0.74;87.21;100864.34;106503;1267;97748;-68
2023/12/13 05:42:09;;;;;;;;;;;;;;;-0.68;87.60;100868.85;106543;1271;97884;-69
2023/12/13 05:44:37;;;;;;;;;;;;;;;-0.62;87.62;100865.61;106559;1267;110803;-69
2023/12/13 05:47:05;;;;;;;;;;;;;;;-0.57;87.59;100867.19;106590;1269;108421;-67
2023/12/13 05:49:34;;;;;;;;;;;;;;;-0.55;87.39;100873.10;106459;1271;106241;-67
2023/12/13 05:52:03;;;;;;;;;;;;;;;-0.57;87.01;100872.83;106492;1273;97894;-67
2023/12/13 05:54:31;;;;;;;;;;;;;;;-0.60;86.53;100877.02;106564;1271;97850;-65
2023/12/13 05:56:59;;;;;;;;;;;;;;;-0.60;86.70;100866.77;106520;1270;111771;-65
2023/12/13 05:59:27;;;;;;;;;;;;;;;-0.60;86.55;100870.17;106544;1271;109596;-65
2023/12/13 06:01:56;;;;;;;;;;;;;;;-0.61;86.45;100868.96;106512;1270;108644;-65
2023/12/13 06:04:24;;;;;;;;;;;;;;;-0.63;86.46;100862.88;106399;1268;97865;-65
2023/12/13 06:06:53;;;;;;;;;;;;;;;-0.70;86.29;100863.48;106521;1272;97938;-69
2023/12/13 06:09:21;;;;;;;;;;;;;;;-0.73;86.32;100868.19;106501;1269;110981;-69
2023/12/13 06:11:49;;;;;;;;;;;;;;;-0.71;86.55;100862.13;106441;1270;109064;-69
2023/12/13 06:14:17;;;;;;;;;;;;;;;-0.66;87.01;100865.59;106422;1268;107733;-68
2023/12/13 06:16:46;;;;;;;;;;;;;;;-0.61;86.90;100860.66;106448;1268;97942;-69
2023/12/13 06:19:14;;;;;;;;;;;;;;;-0.60;86.83;100874.89;106466;1268;97751;-68
2023/12/13 06:21:42;;;;;;;;;;;;;;;-0.52;87.40;100874.55;106482;1273;109735;-66
2023/12/13 06:24:10;;;;;;;;;;;;;;;-0.46;87.19;100873.79;106525;1268;110082;-66
2023/12/13 06:26:38;;;;;;;;;;;;;;;-0.38;87.28;100878.77;106470;1273;107474;-67
2023/12/13 06:29:06;;;;;;;;;;;;;;;-0.34;87.12;100881.41;106512;1267;97887;-65
2023/12/13 06:31:35;;;;;;;;;;;;;;;-0.29;87.09;100887.71;106307;1271;97745;-65
2023/12/13 06:34:03;;;;;;;;;;;;;;;-0.24;86.92;100891.91;106349;1269;112121;-65
2023/12/13 06:36:31;;;;;;;;;;;;;;;-0.19;86.93;100892.75;106552;1268;109695;-65
2023/12/13 06:39:04;;;;;;;;;;;;;;;-0.18;86.51;100890.94;106470;1267;107272;-65
2023/12/13 06:41:32;;;;;;;;;;;;;;;-0.21;86.35;100892.66;106511;1271;98542;-64
2023/12/13 06:44:00;;;;;;;;;;;;;;;-0.23;86.16;100893.48;106530;1267;97861;-69
2023/12/13 06:46:29;;;;;;;;;;;;;;;-0.22;86.21;100896.77;106392;1268;111320;-67
2023/12/13 06:48:57;;;;;;;;;;;;;;;-0.13;86.67;100891.65;106379;1269;109417;-66
2023/12/13 06:51:26;;;;;;;;;;;;;;;-0.03;86.78;100880.65;106558;1272;108195;-67
2023/12/13 06:53:54;;;;;;;;;;;;;;;0.10;87.01;100875.15;106481;1268;97888;-66
2023/12/13 06:56:26;;;;;;;;;;;;;;;0.19;86.59;100877.61;106524;1270;97733;-66
2023/12/13 06:58:55;;;;;;;;;;;;;;;0.26;86.61;100870.22;106505;1267;112094;-67
2023/12/13 07:01:23;;;;;;;;;;;;;;;0.35;86.40;100866.50;106497;1273;109399;-65
2023/12/13 07:03:52;;;;;;;;;;;;;;;0.32;85.96;100863.27;106513;1271;108317;-66
2023/12/13 07:06:21;;;;;;;;;;;;;;;0.31;85.89;100859.23;106538;1269;97861;-67
2023/12/13 07:08:49;;;;;;;;;;;;;;;0.24;85.66;100852.50;106555;1271;97864;-65
2023/12/13 07:11:17;;;;;;;;;;;;;;;0.21;85.57;100842.41;106512;1272;111568;-65
2023/12/13 07:13:46;;;;;;;;;;;;;;;0.22;85.76;100844.32;106528;1268;109708;-65
2023/12/13 07:16:14;;;;;;;;;;;;;;;0.26;85.90;100842.55;106485;1268;108697;-65
2023/12/13 07:18:43;;;;;;;;;;;;;;;0.29;85.97;100838.51;106500;1271;97906;-67
2023/12/13 07:21:19;;;;;;;;;;;;;;;0.36;86.13;100840.50;106528;1272;97857;-66
2023/12/13 07:23:48;;;;;;;;;;;;;;;0.42;85.97;100838.65;106527;1270;111459;-68
2023/12/13 07:26:16;;;;;;;;;;;;;;;0.49;86.06;100834.11;106497;1273;109381;-69
2023/12/13 07:28:44;;;;;;;;;;;;;;;0.54;85.79;100825.25;106490;1268;107336;-69
2023/12/13 07:31:13;;;;;;;;;;;;;;;0.56;85.66;100832.73;106503;1270;98155;-66
2023/12/13 07:33:41;;;;;;;;;;;;;;;0.61;85.79;100827.23;106507;1273;97940;-67
2023/12/13 07:36:14;;;;;;;;;;;;;;;0.64;85.59;100826.90;106475;1270;111787;-67
2023/12/13 07:38:43;;;;;;;;;;;;;;;0.68;85.62;100830.60;106567;1271;108957;-67
2023/12/13 07:41:11;;;;;;;;;;;;;;;0.75;85.95;100827.44;106560;1268;107103;-67
2023/12/13 07:43:39;;;;;;;;;;;;;;;0.80;85.46;100821.05;106503;1270;97928;-66
2023/12/13 07:46:08;;;;;;;;;;;;;;;0.81;85.48;100827.00;106546;1267;97960;-65
2023/12/13 07:48:39;;;;;;;;;;;;;;;0.84;85.47;100825.98;106588;1267;111546;-65
2023/12/13 07:51:07;;;;;;;;;;;;;;;0.88;85.45;100825.08;106519;1270;109332;-68
2023/12/13 07:53:36;;;;;;;;;;;;;;;0.91;85.35;100825.64;106501;1270;108169;-69
2023/12/13 07:56:06;;;;;;;;;;;;;;;0.93;85.09;100827.14;106552;1267;98527;-68
2023/12/13 07:58:34;;;;;;;;;;;;;;;0.95;85.06;100822.26;106500;1271;97856;-67
2023/12/13 08:01:03;;;;;;;;;;;;;;;1.00;85.25;100830.15;106513;1270;111283;-67
2023/12/13 08:03:31;;;;;;;;;;;;;;;1.08;85.61;100820.80;106514;1270;109654;-68
2023/12/13 08:05:59;;;;;;;;;;;;;;;1.13;85.22;100818.95;106526;1267;106851;-68
2023/12/13 08:08:29;;;;;;;;;;;;;;;1.16;85.01;100819.73;106547;1271;97982;-66
2023/12/13 08:10:57;;;;;;;;;;;;;;;1.21;85.11;100814.67;106521;1269;97749;-67
2023/12/13 08:13:25;;;;;;;;;;;;;;;1.23;84.77;100813.52;106508;1273;110526;-69
2023/12/13 08:15:53;;;;;;;;;;;;;;;1.21;84.32;100807.23;106487;1272;109061;-66
2023/12/13 08:18:21;;;;;;;;;;;;;;;1.18;84.07;100810.75;106501;1270;109321;-66
2023/12/13 08:20:50;;;;;;;;;;;;;;;1.10;83.87;100804.63;106490;1269;97814;-67
2023/12/13 08:23:18;;;;;;;;;;;;;;;1.06;84.10;100803.19;106529;1269;97723;-66
2023/12/13 08:25:47;;;;;;;;;;;;;;;1.02;83.92;100796.67;106508;1268;111073;-69
2023/12/13 08:28:15;;;;;;;;;;;;;;;0.99;84.23;100799.64;106533;1270;109282;-69
2023/12/13 08:30:43;;;;;;;;;;;;;;;1.03;84.75;100799.27;106510;1267;108242;-68
2023/12/13 08:33:12;;;;;;;;;;;;;;;1.06;84.59;100801.27;106570;1267;97937;-69
2023/12/13 08:35:42;;;;;;;;;;;;;;;1.11;84.75;100801.73;106525;1272;97918;-69
2023/12/13 08:38:10;;;;;;;;;;;;;;;1.14;84.74;100802.85;106526;1270;111551;-66
2023/12/13 08:40:39;;;;;;;;;;;;;;;1.15;84.52;100797.46;106543;1273;110035;-66
2023/12/13 08:43:07;;;;;;;;;;;;;;;1.10;83.84;100793.67;106524;1270;109019;-65
2023/12/13 08:45:35;;;;;;;;;;;;;;;1.04;83.74;100778.56;106529;1270;97932;-67
2023/12/13 08:48:04;;;;;;;;;;;;;;;0.96;83.88;100777.74;106534;1270;97798;-66
2023/12/13 08:50:32;;;;;;;;;;;;;;;0.91;84.21;100773.73;106535;1270;112462;-67
2023/12/13 08:53:00;;;;;;;;;;;;;;;0.92;84.24;100770.30;106522;1272;109262;-64
2023/12/13 08:55:28;;;;;;;;;;;;;;;0.93;84.35;100772.22;106534;1270;107214;-67
2023/12/13 08:57:56;;;;;;;;;;;;;;;0.92;84.55;100769.80;106509;1273;97936;-66
2023/12/13 09:00:25;;;;;;;;;;;;;;;0.89;84.57;100760.90;106560;1268;97746;-67
2023/12/13 09:02:53;;;;;;;;;;;;;;;0.89;84.88;100752.98;106559;1268;110881;-68
2023/12/13 09:05:21;;;;;;;;;;;;;;;0.89;84.99;100750.88;106435;1273;109245;-67
2023/12/13 09:07:49;;;;;;;;;;;;;;;0.93;85.40;100742.54;106527;1270;106583;-67
2023/12/13 09:10:18;;;;;;;;;;;;;;;0.94;85.48;100735.77;106493;1267;97863;-66
2023/12/13 09:12:47;;;;;;;;;;;;;;;0.94;85.59;100735.06;106538;1269;97864;-65
2023/12/13 09:15:18;;;;;;;;;;;;;;;0.99;85.78;100722.66;106503;1268;111421;-67
2023/12/13 09:17:46;;;;;;;;;;;;;;;1.04;85.73;100721.17;106537;1270;109970;-66
2023/12/13 09:20:14;;;;;;;;;;;;;;;1.07;85.75;100707.58;106540;1267;108015;-67
2023/12/13 09:22:43;;;;;;;;;;;;;;;1.12;85.82;100697.98;106482;1270;97867;-66
2023/12/13 09:25:15;;;;;;;;;;;;;;;1.16;86.14;100698.71;106564;1267;97855;-67
2023/12/13 09:27:44;;;;;;;;;;;;;;;1.18;86.05;100691.35;106504;1272;110573;-66
2023/12/13 09:30:13;;;;;;;;;;;;;;;1.23;86.16;100686.14;106589;1267;108608;-66
2023/12/13 09:32:42;;;;;;;;;;;;;;;1.27;86.27;100681.37;106534;1269;108184;-67
2023/12/13 09:35:14;;;;;;;;;;;;;;;1.29;86.29;100687.77;106550;1267;97931;-68
2023/12/13 09:37:43;;;;;;;;;;;;;;;1.33;86.37;100684.23;106508;1268;97861;-68
2023/12/13 09:40:14;;;;;;;;;;;;;;;1.40;86.63;100679.08;106519;1267;111287;-67
2023/12/13 09:42:47;;;;;;;;;;;;;;;1.51;86.83;100676.42;106478;1270;109126;-66
2023/12/13 09:45:20;;;;;;;;;;;;;;;1.64;86.85;100679.27;106462;1272;106910;-66
2023/12/13 09:47:51;;;;;;;;;;;;;;;1.74;86.62;100670.96;106574;1267;97865;-66
2023/12/13 09:50:22;;;;;;;;;;;;;;;1.82;86.45;100664.72;106592;1267;98028;-65
2023/12/13 09:52:53;;;;;;;;;;;;;;;1.86;86.09;100666.59;106493;1271;110487;-66
2023/12/13 09:55:21;;;;;;;;;;;;;;;1.85;85.54;100648.10;106574;1267;109039;-65
2023/12/13 09:57:49;;;;;;;;;;;;;;;1.74;85.30;100647.97;106561;1267;107894;-67
2023/12/13 10:00:18;;;;;;;;;;;;;;;1.71;85.49;100644.02;106539;1267;97949;-66
2023/12/13 10:02:49;;;;;;;;;;;;;;;1.77;85.79;100644.98;106565;1269;97867;-67
2023/12/13 10:05:17;;;;;;;;;;;;;;;1.79;85.65;100641.13;106525;1267;113169;-66
2023/12/13 10:07:45;;;;;;;;;;;;;;;1.80;85.74;100642.31;106522;1267;108671;-67
2023/12/13 10:10:15;;;;;;;;;;;;;;;1.85;85.99;100634.95;106568;1267;107141;-69
2023/12/13 10:12:49;;;;;;;;;;;;;;;1.97;86.20;100632.79;106543;1269;97869;-69
2023/12/13 10:15:17;;;;;;;;;;;;;;;2.15;86.80;100629.15;106085;1268;487924;-66
2023/12/13 10:17:47;;;;;;;;;;;;;;;2.27;86.48;100621.35;106587;1267;111239;-65
2023/12/13 10:20:16;;;;;;;;;;;;;;;2.34;85.95;100618.32;106534;1272;108637;-66
2023/12/13 10:22:44;;;;;;;;;;;;;;;2.38;85.62;100604.68;106549;1270;107973;-66
2023/12/13 10:25:13;;;;;;;;;;;;;;;2.37;85.49;100608.97;106572;1267;97949;-66
2023/12/13 10:27:42;;;;;;;;;;;;;;;2.35;85.33;100601.60;106585;1267;97734;-66
2023/12/13 10:30:11;;;;;;;;;;;;;;;2.38;85.17;100601.67;106531;1271;110947;-70
2023/12/13 10:32:40;;;;;;;;;;;;;;;2.39;84.74;100593.83;106503;1268;108642;-66
2023/12/13 10:35:09;;;;;;;;;;;;;;;2.34;84.61;100594.40;106499;1269;108263;-66
2023/12/13 10:37:40;;;;;;;;;;;;;;;2.27;84.33;100593.58;106599;1267;98000;-68
2023/12/13 10:40:12;;;;;;;;;;;;;;;2.13;84.31;100595.42;106592;1267;98044;-67
2023/12/13 10:42:44;;;;;;;;;;;;;;;2.01;84.41;100593.10;106481;1273;110705;-67
2023/12/13 10:45:12;;;;;;;;;;;;;;;1.94;84.76;100581.26;106638;1268;109908;-67
2023/12/13 10:47:43;;;;;;;;;;;;;;;1.95;84.90;100579.27;106487;1268;108084;-66
2023/12/13 10:50:12;;;;;;;;;;;;;;;1.98;85.20;100563.23;106558;1269;97974;-67
2023/12/13 10:52:45;;;;;;;;;;;;;;;2.00;84.97;100549.97;106552;1267;97841;-65
2023/12/13 10:55:15;;;;;;;;;;;;;;;1.99;84.72;100535.19;106573;1267;112293;-67
2023/12/13 10:57:43;;;;;;;;;;;;;;;1.97;84.83;100522.93;106581;1267;109745;-67
2023/12/13 11:00:13;;;;;;;;;;;;;;;1.98;84.92;100518.98;106452;1268;108016;-66
2023/12/13 11:02:48;;;;;;;;;;;;;;;2.06;85.51;100513.25;106535;1267;97876;-67
2023/12/13 11:05:17;;;;;;;;;;;;;;;2.17;85.77;100506.94;106619;1267;97861;-67
2023/12/13 11:07:45;;;;;;;;;;;;;;;2.25;85.24;100504.36;106603;1267;111798;-66
2023/12/13 11:10:14;;;;;;;;;;;;;;;2.26;85.13;100493.52;106586;1267;109325;-66
2023/12/13 11:12:49;;;;;;;;;;;;;;;2.22;84.95;100496.23;106452;1268;108190;-67
2023/12/13 11:15:19;;;;;;;;;;;;;;;2.19;85.14;100491.42;106574;1268;97930;-67
2023/12/13 11:17:50;;;;;;;;;;;;;;;2.17;85.25;100484.42;106571;1267;98116;-67
2023/12/13 11:20:20;;;;;;;;;;;;;;;2.17;85.21;100481.08;106576;1270;110223;-65
2023/12/13 11:22:49;;;;;;;;;;;;;;;2.19;85.44;100471.94;106567;1267;109595;-67
2023/12/13 11:25:18;;;;;;;;;;;;;;;2.21;85.26;100468.15;106507;1267;108317;-66
2023/12/13 11:27:47;;;;;;;;;;;;;;;2.19;85.25;100464.35;106528;1270;97987;-66
2023/12/13 11:30:16;;;;;;;;;;;;;;;2.17;85.11;100469.39;106592;1268;97766;-66
2023/12/13 11:32:45;;;;;;;;;;;;;;;2.15;85.18;100457.66;106518;1268;112277;-66
2023/12/13 11:35:16;;;;;;;;;;;;;;;2.13;85.38;100463.46;106461;1270;109857;-67
2023/12/13 11:37:49;;;;;;;;;;;;;;;2.11;85.35;100465.52;106554;1267;107660;-67
2023/12/13 11:40:18;;;;;;;;;;;;;;;2.09;85.40;100455.38;106566;1267;97875;-68
2023/12/13 11:42:47;;;;;;;;;;;;;;;2.07;85.39;100450.53;106595;1269;97968;-72
2023/12/13 11:45:19;;;;;;;;;;;;;;;2.06;85.60;100443.21;106521;1268;109351;-68
2023/12/13 11:47:49;;;;;;;;;;;;;;;2.10;85.95;100453.02;106558;1268;108666;-67
2023/12/13 11:50:19;;;;;;;;;;;;;;;2.19;85.91;100451.24;106526;1267;107818;-66
2023/12/13 11:52:48;;;;;;;;;;;;;;;2.23;85.80;100452.08;106513;1267;97998;-65
2023/12/13 11:55:19;;;;;;;;;;;;;;;2.27;85.58;100456.30;106587;1267;97949;-65
2023/12/13 11:57:51;;;;;;;;;;;;;;;2.29;85.48;100463.23;106562;1270;112122;-66
2023/12/13 12:00:20;;;;;;;;;;;;;;;2.28;85.13;100463.86;106556;1267;108874;-66
2023/12/13 12:02:52;;;;;;;;;;;;;;;2.25;85.04;100465.26;106528;1270;108373;-64
2023/12/13 12:05:23;;;;;;;;;;;;;;;2.18;84.90;100456.27;106505;1267;97768;-67
2023/12/13 12:07:56;;;;;;;;;;;;;;;2.14;84.82;100463.80;106523;1267;97753;-66
2023/12/13 12:10:25;;;;;;;;;;;;;;;2.12;85.10;100452.56;106609;1267;110282;-67
2023/12/13 12:12:53;;;;;;;;;;;;;;;2.08;84.88;100450.11;106605;1267;109628;-67
2023/12/13 12:15:22;;;;;;;;;;;;;;;2.05;84.98;100450.48;106508;1268;108441;-68
2023/12/13 12:17:50;;;;;;;;;;;;;;;2.07;85.09;100452.67;106558;1267;98580;-69
2023/12/13 12:20:18;;;;;;;;;;;;;;;2.09;84.98;100448.33;106567;1267;97845;-68
2023/12/13 12:22:47;;;;;;;;;;;;;;;2.10;84.83;100449.51;106583;1267;111456;-65
2023/12/13 12:25:17;;;;;;;;;;;;;;;2.12;85.13;100446.90;106536;1267;109578;-68
2023/12/13 12:27:48;;;;;;;;;;;;;;;2.11;84.98;100446.04;106555;1270;108558;-66
2023/12/13 12:30:18;;;;;;;;;;;;;;;2.06;84.81;100431.13;106485;1268;97732;-65
2023/12/13 12:32:46;;;;;;;;;;;;;;;1.99;84.78;100438.81;106531;1270;97965;-68